sensor_id;sensor_type;location;lat;lon;timestamp;pressure;altitude;pressure_sealevel;temperature;humidity
52797;BME280;38666;43.348;12.584;2023-02-18T06:54:00;97029.91;;;5.85;86.94
52797;BME280;38666;43.348;12.584;2023-02-18T06:56:26;97026.50;;;5.88;88.44
52797;BME280;38666;43.348;12.584;2023-02-18T06:58:51;97031.03;;;5.97;89.67
52797;BME280;38666;43.348;12.584;2023-02-18T07:01:17;97024.84;;;5.96;85.45
52797;BME280;38666;43.348;12.584;2023-02-18T07:03:42;97030.38;;;6.00;86.10
52797;BME280;38666;43.348;12.584;2023-02-18T07:06:08;97028.38;;;6.09;86.95
52797;BME280;38666;43.348;12.584;2023-02-18T07:08:33;97031.31;;;6.17;85.98
52797;BME280;38666;43.348;12.584;2023-02-18T07:11:02;97033.34;;;6.20;84.94
52797;BME280;38666;43.348;12.584;2023-02-18T07:13:27;97031.91;;;6.22;84.49
52797;BME280;38666;43.348;12.584;2023-02-18T07:15:53;97037.44;;;6.26;83.75
52797;BME280;38666;43.348;12.584;2023-02-18T07:18:18;97029.31;;;6.38;82.83
52797;BME280;38666;43.348;12.584;2023-02-18T07:20:43;97026.38;;;6.44;81.23
52797;BME280;38666;43.348;12.584;2023-02-18T07:23:09;97028.19;;;6.52;81.35
52797;BME280;38666;43.348;12.584;2023-02-18T07:25:35;97039.25;;;6.59;80.16
52797;BME280;38666;43.348;12.584;2023-02-18T07:28:01;97034.06;;;6.67;80.16
52797;BME280;38666;43.348;12.584;2023-02-18T07:30:27;97033.81;;;6.72;79.87
52797;BME280;38666;43.348;12.584;2023-02-18T07:32:52;97031.44;;;6.83;80.15
52797;BME280;38666;43.348;12.584;2023-02-18T07:35:18;97036.75;;;6.79;79.56
52797;BME280;38666;43.348;12.584;2023-02-18T07:37:46;97033.34;;;6.95;79.28
52797;BME280;38666;43.348;12.584;2023-02-18T07:40:14;97034.03;;;6.79;80.03
52797;BME280;38666;43.348;12.584;2023-02-18T07:42:41;97028.28;;;6.68;81.12
52797;BME280;38666;43.348;12.584;2023-02-18T07:45:06;97029.06;;;6.81;80.09
52797;BME280;38666;43.348;12.584;2023-02-18T07:47:32;97024.34;;;6.78;79.77
52797;BME280;38666;43.348;12.584;2023-02-18T07:49:57;97033.81;;;6.84;79.58
52797;BME280;38666;43.348;12.584;2023-02-18T07:52:23;97022.03;;;6.80;79.55
52797;BME280;38666;43.348;12.584;2023-02-18T07:54:48;97034.69;;;7.01;79.20
52797;BME280;38666;43.348;12.584;2023-02-18T07:57:14;97025.16;;;7.07;78.22
52797;BME280;38666;43.348;12.584;2023-02-18T07:59:39;97033.88;;;7.13;78.86
52797;BME280;38666;43.348;12.584;2023-02-18T08:02:05;97031.91;;;7.26;78.02
52797;BME280;38666;43.348;12.584;2023-02-18T08:04:32;97034.28;;;7.28;77.66
52797;BME280;38666;43.348;12.584;2023-02-18T08:06:57;97033.06;;;7.13;77.86
52797;BME280;38666;43.348;12.584;2023-02-18T08:09:23;97039.97;;;7.22;77.99
52797;BME280;38666;43.348;12.584;2023-02-18T08:11:48;97046.41;;;7.18;76.84
52797;BME280;38666;43.348;12.584;2023-02-18T08:14:14;97046.41;;;7.18;77.29
52797;BME280;38666;43.348;12.584;2023-02-18T08:16:39;97050.50;;;7.24;76.50
52797;BME280;38666;43.348;12.584;2023-02-18T08:19:05;97042.09;;;7.29;76.18
52797;BME280;38666;43.348;12.584;2023-02-18T08:21:30;97040.25;;;7.46;74.73
52797;BME280;38666;43.348;12.584;2023-02-18T08:23:57;97047.50;;;7.42;74.06
52797;BME280;38666;43.348;12.584;2023-02-18T08:26:23;97048.81;;;7.48;73.73
52797;BME280;38666;43.348;12.584;2023-02-18T08:28:49;97051.34;;;7.69;72.35
52797;BME280;38666;43.348;12.584;2023-02-18T08:31:20;97048.53;;;7.66;71.67
52797;BME280;38666;43.348;12.584;2023-02-18T08:33:46;97048.47;;;7.78;71.79
52797;BME280;38666;43.348;12.584;2023-02-18T08:36:12;97049.00;;;7.84;71.37
52797;BME280;38666;43.348;12.584;2023-02-18T08:38:37;97044.56;;;7.92;71.72
52797;BME280;38666;43.348;12.584;2023-02-18T08:41:04;97058.09;;;8.04;69.75
52797;BME280;38666;43.348;12.584;2023-02-18T08:43:30;97063.69;;;7.95;70.73
52797;BME280;38666;43.348;12.584;2023-02-18T08:45:57;97053.44;;;7.89;70.88
52797;BME280;38666;43.348;12.584;2023-02-18T08:48:22;97053.28;;;7.69;71.21
52797;BME280;38666;43.348;12.584;2023-02-18T08:50:48;97053.97;;;7.66;71.16
52797;BME280;38666;43.348;12.584;2023-02-18T08:53:14;97062.63;;;8.00;70.10
52797;BME280;38666;43.348;12.584;2023-02-18T08:55:40;97057.56;;;8.15;69.74
52797;BME280;38666;43.348;12.584;2023-02-18T08:58:06;97051.31;;;7.98;70.69
52797;BME280;38666;43.348;12.584;2023-02-18T09:00:31;97058.72;;;7.98;71.82
52797;BME280;38666;43.348;12.584;2023-02-18T09:02:57;97056.34;;;8.12;71.16
52797;BME280;38666;43.348;12.584;2023-02-18T09:05:22;97050.91;;;8.28;68.75
52797;BME280;38666;43.348;12.584;2023-02-18T09:07:48;97054.50;;;8.33;68.62
52797;BME280;38666;43.348;12.584;2023-02-18T09:10:13;97056.88;;;8.18;69.41
52797;BME280;38666;43.348;12.584;2023-02-18T09:12:39;97055.22;;;8.29;69.48
52797;BME280;38666;43.348;12.584;2023-02-18T09:15:04;97060.41;;;8.35;68.58
52797;BME280;38666;43.348;12.584;2023-02-18T09:17:30;97058.13;;;8.37;69.24
52797;BME280;38666;43.348;12.584;2023-02-18T09:19:56;97054.44;;;8.45;68.19
52797;BME280;38666;43.348;12.584;2023-02-18T09:22:21;97066.19;;;8.65;68.05
52797;BME280;38666;43.348;12.584;2023-02-18T09:24:47;97060.56;;;8.74;66.99
52797;BME280;38666;43.348;12.584;2023-02-18T09:27:12;97051.63;;;8.74;66.15
52797;BME280;38666;43.348;12.584;2023-02-18T09:29:39;97049.16;;;8.85;66.13
52797;BME280;38666;43.348;12.584;2023-02-18T09:32:06;97051.59;;;8.90;65.51
52797;BME280;38666;43.348;12.584;2023-02-18T09:34:33;97059.72;;;8.70;66.94
52797;BME280;38666;43.348;12.584;2023-02-18T09:36:58;97047.50;;;8.31;68.82
52797;BME280;38666;43.348;12.584;2023-02-18T09:39:24;97056.88;;;8.34;69.06
52797;BME280;38666;43.348;12.584;2023-02-18T09:41:55;97044.16;;;8.71;68.19
52797;BME280;38666;43.348;12.584;2023-02-18T09:44:36;97061.25;;;8.87;67.28
52797;BME280;38666;43.348;12.584;2023-02-18T09:47:16;97059.75;;;9.06;65.89
52797;BME280;38666;43.348;12.584;2023-02-18T09:49:51;97063.34;;;8.94;66.08
52797;BME280;38666;43.348;12.584;2023-02-18T09:52:28;97069.84;;;9.06;65.88
52797;BME280;38666;43.348;12.584;2023-02-18T09:54:54;97070.13;;;9.00;66.09
52797;BME280;38666;43.348;12.584;2023-02-18T09:57:28;97070.13;;;9.00;65.79
52797;BME280;38666;43.348;12.584;2023-02-18T10:00:03;97065.88;;;9.03;66.75
52797;BME280;38666;43.348;12.584;2023-02-18T10:02:30;97070.00;;;9.13;65.45
52797;BME280;38666;43.348;12.584;2023-02-18T10:04:56;97069.59;;;9.31;65.37
52797;BME280;38666;43.348;12.584;2023-02-18T10:07:32;97070.41;;;8.79;66.67
52797;BME280;38666;43.348;12.584;2023-02-18T10:10:17;97065.72;;;8.96;67.02
52797;BME280;38666;43.348;12.584;2023-02-18T10:12:45;97067.31;;;9.33;64.66
52797;BME280;38666;43.348;12.584;2023-02-18T10:15:20;97067.53;;;9.44;64.55
52797;BME280;38666;43.348;12.584;2023-02-18T10:17:49;97067.22;;;9.29;66.31
52797;BME280;38666;43.348;12.584;2023-02-18T10:20:19;97071.75;;;9.61;63.80
52797;BME280;38666;43.348;12.584;2023-02-18T10:22:49;97070.75;;;9.49;64.30
52797;BME280;38666;43.348;12.584;2023-02-18T10:25:20;97066.59;;;9.56;64.26
52797;BME280;38666;43.348;12.584;2023-02-18T10:27:48;97065.94;;;9.07;67.42
52797;BME280;38666;43.348;12.584;2023-02-18T10:30:22;97062.00;;;8.68;69.24
52797;BME280;38666;43.348;12.584;2023-02-18T10:32:52;97063.81;;;8.64;69.98
52797;BME280;38666;43.348;12.584;2023-02-18T10:35:24;97065.94;;;8.71;68.96
52797;BME280;38666;43.348;12.584;2023-02-18T10:38:22;97057.44;;;8.56;69.67
52797;BME280;38666;43.348;12.584;2023-02-18T10:41:24;97056.38;;;8.61;69.34
52797;BME280;38666;43.348;12.584;2023-02-18T10:51:24;97044.38;;;9.97;63.26
52797;BME280;38666;43.348;12.584;2023-02-18T10:53:52;97046.75;;;9.98;62.53
52797;BME280;38666;43.348;12.584;2023-02-18T10:56:45;97040.75;;;9.49;64.40
52797;BME280;38666;43.348;12.584;2023-02-18T11:01:44;97037.03;;;9.38;65.86
52797;BME280;38666;43.348;12.584;2023-02-18T11:04:18;97037.38;;;9.99;63.29
52797;BME280;38666;43.348;12.584;2023-02-18T11:06:47;97033.00;;;9.71;64.42
52797;BME280;38666;43.348;12.584;2023-02-18T11:12:12;97024.56;;;10.23;60.84
52797;BME280;38666;43.348;12.584;2023-02-18T11:14:46;97027.06;;;9.89;61.48
52797;BME280;38666;43.348;12.584;2023-02-18T11:17:28;97019.38;;;9.95;61.91
52797;BME280;38666;43.348;12.584;2023-02-18T11:19:58;97019.28;;;9.28;63.45
52797;BME280;38666;43.348;12.584;2023-02-18T11:22:28;97013.09;;;9.71;63.22
52797;BME280;38666;43.348;12.584;2023-02-18T11:24:56;97017.22;;;9.21;64.53
52797;BME280;38666;43.348;12.584;2023-02-18T11:27:41;97010.59;;;9.02;66.35
52797;BME280;38666;43.348;12.584;2023-02-18T11:30:34;97023.06;;;9.03;65.17
52797;BME280;38666;43.348;12.584;2023-02-18T11:33:20;97006.88;;;9.50;63.75
52797;BME280;38666;43.348;12.584;2023-02-18T11:35:58;97008.53;;;9.55;63.76
52797;BME280;38666;43.348;12.584;2023-02-18T11:38:55;96999.22;;;9.17;64.91
52797;BME280;38666;43.348;12.584;2023-02-18T11:41:35;96994.69;;;9.24;64.23
52797;BME280;38666;43.348;12.584;2023-02-18T11:44:03;96996.69;;;9.47;64.82
52797;BME280;38666;43.348;12.584;2023-02-18T11:46:30;96985.16;;;9.78;63.21
52797;BME280;38666;43.348;12.584;2023-02-18T11:49:10;96985.06;;;9.50;63.78
52797;BME280;38666;43.348;12.584;2023-02-18T11:51:43;96988.69;;;9.35;64.11
52797;BME280;38666;43.348;12.584;2023-02-18T11:54:27;96989.53;;;9.19;65.58
52797;BME280;38666;43.348;12.584;2023-02-18T11:57:11;96987.38;;;9.09;65.78
52797;BME280;38666;43.348;12.584;2023-02-18T11:59:39;96979.19;;;9.48;64.64
52797;BME280;38666;43.348;12.584;2023-02-18T12:04:41;96968.38;;;9.75;63.59
52797;BME280;38666;43.348;12.584;2023-02-18T12:07:23;96963.69;;;9.53;63.94
52797;BME280;38666;43.348;12.584;2023-02-18T12:10:04;96960.25;;;9.56;64.27
52797;BME280;38666;43.348;12.584;2023-02-18T12:12:51;96961.00;;;9.56;64.42
52797;BME280;38666;43.348;12.584;2023-02-18T12:15:28;96947.88;;;9.62;64.90
52797;BME280;38666;43.348;12.584;2023-02-18T12:40:49;96936.09;;;10.05;63.40
52797;BME280;38666;43.348;12.584;2023-02-18T13:01:51;96914.19;;;9.74;65.33
52797;BME280;38666;43.348;12.584;2023-02-18T13:07:19;96911.09;;;9.52;66.09
52797;BME280;38666;43.348;12.584;2023-02-18T13:10:05;96906.09;;;9.81;65.17
52797;BME280;38666;43.348;12.584;2023-02-18T13:12:57;96894.75;;;10.03;63.77
52797;BME280;38666;43.348;12.584;2023-02-18T13:18:11;96899.19;;;9.41;67.01
52797;BME280;38666;43.348;12.584;2023-02-18T13:20:44;96890.81;;;9.30;67.17
52797;BME280;38666;43.348;12.584;2023-02-18T13:23:35;96889.03;;;9.18;68.09
52797;BME280;38666;43.348;12.584;2023-02-18T13:26:04;96893.97;;;9.12;69.03
52797;BME280;38666;43.348;12.584;2023-02-18T13:28:51;96893.44;;;9.02;70.12
52797;BME280;38666;43.348;12.584;2023-02-18T13:34:04;96888.34;;;9.01;69.80
52797;BME280;38666;43.348;12.584;2023-02-18T13:39:26;96884.84;;;9.00;70.71
52797;BME280;38666;43.348;12.584;2023-02-18T13:52:46;96875.09;;;8.60;72.67
52797;BME280;38666;43.348;12.584;2023-02-18T13:55:18;96872.44;;;8.63;73.35
52797;BME280;38666;43.348;12.584;2023-02-18T13:57:47;96877.19;;;8.50;73.53
52797;BME280;38666;43.348;12.584;2023-02-18T14:00:23;96877.97;;;8.67;73.14
52797;BME280;38666;43.348;12.584;2023-02-18T14:03:01;96878.56;;;8.60;73.41
52797;BME280;38666;43.348;12.584;2023-02-18T14:05:38;96866.06;;;8.75;72.94
52797;BME280;38666;43.348;12.584;2023-02-18T14:08:11;96873.72;;;8.89;72.48
52797;BME280;38666;43.348;12.584;2023-02-18T14:10:37;96874.00;;;8.84;72.40
52797;BME280;38666;43.348;12.584;2023-02-18T14:13:23;96865.56;;;8.53;73.51
52797;BME280;38666;43.348;12.584;2023-02-18T14:15:57;96871.94;;;8.58;74.12
52797;BME280;38666;43.348;12.584;2023-02-18T14:28:43;96863.22;;;8.52;75.21
52797;BME280;38666;43.348;12.584;2023-02-18T14:31:42;96861.22;;;8.49;75.15
52797;BME280;38666;43.348;12.584;2023-02-18T14:36:57;96854.16;;;8.64;75.33
52797;BME280;38666;43.348;12.584;2023-02-18T14:39:53;96854.56;;;8.66;75.25
52797;BME280;38666;43.348;12.584;2023-02-18T14:50:31;96847.06;;;8.23;77.62
52797;BME280;38666;43.348;12.584;2023-02-18T14:53:03;96846.69;;;8.25;78.17
52797;BME280;38666;43.348;12.584;2023-02-18T14:55:33;96846.09;;;8.31;78.03
52797;BME280;38666;43.348;12.584;2023-02-18T14:58:04;96853.38;;;8.27;78.70
52797;BME280;38666;43.348;12.584;2023-02-18T15:00:34;96849.53;;;8.48;77.16
52797;BME280;38666;43.348;12.584;2023-02-18T15:03:03;96843.09;;;8.57;76.40
52797;BME280;38666;43.348;12.584;2023-02-18T15:05:31;96841.78;;;8.30;78.35
52797;BME280;38666;43.348;12.584;2023-02-18T15:08:14;96842.84;;;8.62;76.40
52797;BME280;38666;43.348;12.584;2023-02-18T15:11:03;96842.34;;;8.56;77.13
52797;BME280;38666;43.348;12.584;2023-02-18T15:13:41;96839.63;;;8.56;77.36
52797;BME280;38666;43.348;12.584;2023-02-18T15:16:29;96838.81;;;8.55;76.78
52797;BME280;38666;43.348;12.584;2023-02-18T15:18:59;96839.06;;;8.50;77.74
52797;BME280;38666;43.348;12.584;2023-02-18T15:21:28;96836.09;;;8.55;77.73
52797;BME280;38666;43.348;12.584;2023-02-18T15:23:59;96836.78;;;8.52;77.76
52797;BME280;38666;43.348;12.584;2023-02-18T15:26:28;96833.84;;;8.41;78.00
52797;BME280;38666;43.348;12.584;2023-02-18T15:28:58;96836.47;;;8.38;78.86
52797;BME280;38666;43.348;12.584;2023-02-18T15:31:27;96844.06;;;8.28;78.63
52797;BME280;38666;43.348;12.584;2023-02-18T15:33:54;96837.06;;;8.27;79.11
52797;BME280;38666;43.348;12.584;2023-02-18T15:36:19;96837.34;;;8.22;79.87
52797;BME280;38666;43.348;12.584;2023-02-18T15:38:45;96838.19;;;8.26;79.79
52797;BME280;38666;43.348;12.584;2023-02-18T15:41:13;96834.16;;;8.20;80.05
52797;BME280;38666;43.348;12.584;2023-02-18T15:43:49;96830.72;;;8.23;79.79
52797;BME280;38666;43.348;12.584;2023-02-18T15:46:16;96825.72;;;8.25;80.28
52797;BME280;38666;43.348;12.584;2023-02-18T15:48:45;96832.41;;;8.28;80.19
52797;BME280;38666;43.348;12.584;2023-02-18T15:51:13;96829.31;;;8.29;80.46
52797;BME280;38666;43.348;12.584;2023-02-18T15:53:42;96818.16;;;8.35;79.31
52797;BME280;38666;43.348;12.584;2023-02-18T15:56:14;96824.31;;;8.51;78.22
52797;BME280;38666;43.348;12.584;2023-02-18T15:58:42;96827.81;;;8.32;79.26
52797;BME280;38666;43.348;12.584;2023-02-18T16:01:26;96830.88;;;8.30;79.30
52797;BME280;38666;43.348;12.584;2023-02-18T16:03:54;96826.00;;;8.20;80.52
52797;BME280;38666;43.348;12.584;2023-02-18T16:06:24;96823.38;;;8.24;80.30
52797;BME280;38666;43.348;12.584;2023-02-18T16:11:37;96818.84;;;8.12;81.48
52797;BME280;38666;43.348;12.584;2023-02-18T16:14:03;96815.69;;;8.10;82.10
52797;BME280;38666;43.348;12.584;2023-02-18T16:16:33;96821.13;;;8.10;82.13
52797;BME280;38666;43.348;12.584;2023-02-18T16:19:00;96822.25;;;8.09;82.58
52797;BME280;38666;43.348;12.584;2023-02-18T16:21:32;96817.53;;;8.05;81.82
52797;BME280;38666;43.348;12.584;2023-02-18T16:24:20;96824.47;;;8.03;82.28
52797;BME280;38666;43.348;12.584;2023-02-18T16:26:49;96822.25;;;8.09;82.13
52797;BME280;38666;43.348;12.584;2023-02-18T16:29:35;96814.53;;;8.11;81.80
52797;BME280;38666;43.348;12.584;2023-02-18T16:32:01;96819.13;;;8.06;82.55
52797;BME280;38666;43.348;12.584;2023-02-18T16:34:26;96821.75;;;8.03;82.77
52797;BME280;38666;43.348;12.584;2023-02-18T16:36:53;96822.25;;;8.09;82.02
52797;BME280;38666;43.348;12.584;2023-02-18T16:39:39;96823.56;;;8.15;82.00
52797;BME280;38666;43.348;12.584;2023-02-18T16:42:09;96829.59;;;8.24;81.05
52797;BME280;38666;43.348;12.584;2023-02-18T16:44:34;96829.59;;;8.24;80.72
52797;BME280;38666;43.348;12.584;2023-02-18T16:47:00;96832.41;;;8.28;80.97
52797;BME280;38666;43.348;12.584;2023-02-18T16:49:26;96819.13;;;8.26;81.10
52797;BME280;38666;43.348;12.584;2023-02-18T16:51:52;96824.00;;;8.17;81.71
52797;BME280;38666;43.348;12.584;2023-02-18T16:54:18;96824.69;;;8.14;81.78
52797;BME280;38666;43.348;12.584;2023-02-18T16:56:43;96821.13;;;8.10;82.17
52797;BME280;38666;43.348;12.584;2023-02-18T16:59:09;96822.25;;;8.09;82.09
52797;BME280;38666;43.348;12.584;2023-02-18T17:01:36;96823.84;;;8.10;82.12
52797;BME280;38666;43.348;12.584;2023-02-18T17:04:04;96833.22;;;8.12;82.09
52797;BME280;38666;43.348;12.584;2023-02-18T17:06:30;96831.28;;;8.13;82.61
52797;BME280;38666;43.348;12.584;2023-02-18T17:08:56;96828.06;;;8.07;82.58
52797;BME280;38666;43.348;12.584;2023-02-18T17:11:25;96833.75;;;8.02;82.74
52797;BME280;38666;43.348;12.584;2023-02-18T17:13:53;96832.00;;;8.10;83.16
52797;BME280;38666;43.348;12.584;2023-02-18T17:16:19;96836.72;;;8.13;82.40
52797;BME280;38666;43.348;12.584;2023-02-18T17:18:45;96834.13;;;8.00;83.28
52797;BME280;38666;43.348;12.584;2023-02-18T17:21:13;96844.56;;;7.98;83.44
52797;BME280;38666;43.348;12.584;2023-02-18T17:23:39;96845.00;;;8.00;83.61
52797;BME280;38666;43.348;12.584;2023-02-18T17:26:11;96842.66;;;7.99;83.53
52797;BME280;38666;43.348;12.584;2023-02-18T17:28:38;96841.22;;;8.05;83.59
52797;BME280;38666;43.348;12.584;2023-02-18T17:31:04;96844.28;;;8.03;83.39
52797;BME280;38666;43.348;12.584;2023-02-18T17:33:29;96842.66;;;7.99;84.14
52797;BME280;38666;43.348;12.584;2023-02-18T17:35:55;96850.09;;;8.02;84.24
52797;BME280;38666;43.348;12.584;2023-02-18T17:38:20;96838.16;;;8.06;83.85
52797;BME280;38666;43.348;12.584;2023-02-18T17:40:47;96844.00;;;8.09;83.38
52797;BME280;38666;43.348;12.584;2023-02-18T17:43:16;96846.41;;;8.10;84.26
52797;BME280;38666;43.348;12.584;2023-02-18T17:45:44;96848.06;;;8.15;83.36
52797;BME280;38666;43.348;12.584;2023-02-18T17:48:12;96846.13;;;8.15;83.46
52797;BME280;38666;43.348;12.584;2023-02-18T17:50:38;96843.25;;;8.08;83.70
52797;BME280;38666;43.348;12.584;2023-02-18T17:53:05;96847.72;;;8.00;84.20
52797;BME280;38666;43.348;12.584;2023-02-18T17:55:32;96844.22;;;8.00;84.57
52797;BME280;38666;43.348;12.584;2023-02-18T17:57:58;96845.72;;;7.97;84.61
52797;BME280;38666;43.348;12.584;2023-02-18T18:00:33;96847.19;;;7.94;84.42
52797;BME280;38666;43.348;12.584;2023-02-18T18:02:59;96851.44;;;7.92;84.61
52797;BME280;38666;43.348;12.584;2023-02-18T18:07:52;96854.50;;;7.90;84.52
52797;BME280;38666;43.348;12.584;2023-02-18T18:10:19;96847.13;;;7.91;84.80
52797;BME280;38666;43.348;12.584;2023-02-18T18:12:47;96846.53;;;7.98;84.10
52797;BME280;38666;43.348;12.584;2023-02-18T18:15:29;96851.59;;;7.99;84.10
52797;BME280;38666;43.348;12.584;2023-02-18T18:17:56;96845.28;;;7.95;84.16
52797;BME280;38666;43.348;12.584;2023-02-18T18:20:25;96853.81;;;7.93;84.47
52797;BME280;38666;43.348;12.584;2023-02-18T18:22:51;96859.59;;;7.92;85.05
52797;BME280;38666;43.348;12.584;2023-02-18T18:25:25;96858.97;;;7.82;85.12
52797;BME280;38666;43.348;12.584;2023-02-18T18:27:51;96864.88;;;7.85;85.42
52797;BME280;38666;43.348;12.584;2023-02-18T18:30:28;96858.72;;;7.88;84.83
52797;BME280;38666;43.348;12.584;2023-02-18T18:32:54;96861.88;;;7.90;85.85
52797;BME280;38666;43.348;12.584;2023-02-18T18:35:38;96857.22;;;7.90;84.98
52797;BME280;38666;43.348;12.584;2023-02-18T18:38:04;96857.16;;;7.87;85.84
52797;BME280;38666;43.348;12.584;2023-02-18T18:40:31;96861.88;;;7.90;85.42
52797;BME280;38666;43.348;12.584;2023-02-18T18:42:59;96858.34;;;7.89;85.39
52797;BME280;38666;43.348;12.584;2023-02-18T18:45:28;96857.59;;;7.89;85.54
52797;BME280;38666;43.348;12.584;2023-02-18T18:47:54;96853.28;;;7.88;85.85
52797;BME280;38666;43.348;12.584;2023-02-18T18:50:20;96850.56;;;7.88;85.30
